createdAt,value
2017-09-10T00:00:07.635Z,90.54
2017-09-10T00:01:19.567Z,90.83
2017-09-10T00:02:31.839Z,90.45
2017-09-10T00:03:44.108Z,90.64
2017-09-10T00:04:56.657Z,90.73
2017-09-10T00:06:08.624Z,90.45
2017-09-10T00:07:20.927Z,90.06
2017-09-10T00:08:33.197Z,90.35
2017-09-10T00:09:45.536Z,90.45
2017-09-10T00:10:58.086Z,89.68
2017-09-10T00:12:10.429Z,90.16
2017-09-10T00:13:22.701Z,90.64
2017-09-10T00:14:34.950Z,90.16
2017-09-10T00:15:47.516Z,90.78
2017-09-10T00:16:59.779Z,90.25
2017-09-10T00:18:12.306Z,89.68
2017-09-10T00:19:24.850Z,89.68
2017-09-10T00:20:37.434Z,89.78
2017-09-10T00:21:50.030Z,89.78
2017-09-10T00:23:02.643Z,90.06
2017-09-10T00:24:15.266Z,89.68
2017-09-10T00:25:27.848Z,89.59
2017-09-10T00:26:39.780Z,89.49
2017-09-10T00:27:52.425Z,89.39
2017-09-10T00:29:04.085Z,89.3
2017-09-10T00:30:16.715Z,89.68
2017-09-10T00:31:28.983Z,89.78
2017-09-10T00:32:41.565Z,89.68
2017-09-10T00:33:53.828Z,89.59
2017-09-10T00:35:06.407Z,89.39
2017-09-10T00:36:19.071Z,89.78
2017-09-10T00:37:31.400Z,89.59
2017-09-10T00:38:43.683Z,89.39
2017-09-10T00:39:56.258Z,89.68
2017-09-10T00:41:08.516Z,89.49
2017-09-10T00:42:21.043Z,89.39
2017-09-10T00:43:33.366Z,89.3
2017-09-10T00:44:46.213Z,89.68
2017-09-10T00:45:58.482Z,89.59
2017-09-10T00:47:11.113Z,89.68
2017-09-10T00:48:23.434Z,89.39
2017-09-10T00:49:35.720Z,89.78
2017-09-10T00:50:48.243Z,89.78
2017-09-10T00:52:00.817Z,89.11
2017-09-10T00:53:13.109Z,89.11
2017-09-10T00:54:25.724Z,89.2
2017-09-10T00:55:38.322Z,89.2
2017-09-10T00:56:50.868Z,89.11
2017-09-10T00:58:03.444Z,89.2
2017-09-10T00:59:16.070Z,88.92
2017-09-10T01:00:28.621Z,88.92
2017-09-10T01:01:41.261Z,88.92
2017-09-10T01:02:53.794Z,89.01
2017-09-10T01:04:06.119Z,88.82
2017-09-10T01:05:18.080Z,88.54
2017-09-10T01:06:29.990Z,88.44
2017-09-10T01:07:42.602Z,88.73
2017-09-10T01:08:54.882Z,88.82
2017-09-10T01:10:07.167Z,88.63
2017-09-10T01:11:19.464Z,88.54
2017-09-10T01:12:31.718Z,88.92
2017-09-10T01:13:44.292Z,88.73
2017-09-10T01:14:56.894Z,88.25
2017-09-10T01:16:09.174Z,88.15
2017-09-10T01:17:21.671Z,88.06
2017-09-10T01:18:33.963Z,88.34
2017-09-10T01:19:46.227Z,88.44
2017-09-10T01:20:58.805Z,88.06
2017-09-10T01:22:11.062Z,88.06
2017-09-10T01:23:23.671Z,87.96
2017-09-10T01:24:36.265Z,88.25
2017-09-10T01:25:48.521Z,88.54
2017-09-10T01:27:00.487Z,88.25
2017-09-10T01:28:12.740Z,87.96
2017-09-10T01:29:25.303Z,88.15
2017-09-10T01:30:37.588Z,88.15
2017-09-10T01:31:50.142Z,88.15
2017-09-10T01:33:02.714Z,87.87
2017-09-10T01:34:15.299Z,87.58
2017-09-10T01:35:26.901Z,88.34
2017-09-10T01:36:39.516Z,87.58
2017-09-10T01:37:51.522Z,87.48
2017-09-10T01:39:04.115Z,87.48
2017-09-10T01:40:16.713Z,87.77
2017-09-10T01:41:29.014Z,87.96
2017-09-10T01:42:41.577Z,87.77
2017-09-10T01:43:53.833Z,87.77
2017-09-10T01:45:05.832Z,87.39
2017-09-10T01:46:18.427Z,87.39
2017-09-10T01:47:31.058Z,87.29
2017-09-10T01:48:43.370Z,87.39
2017-09-10T01:49:56.206Z,87.06
2017-09-10T01:51:08.798Z,87.39
2017-09-10T01:52:21.167Z,87.54
2017-09-10T01:53:33.729Z,87.35
2017-09-10T01:54:45.981Z,87.35
2017-09-10T01:55:58.536Z,87.15
2017-09-10T01:57:10.827Z,87.15
2017-09-10T01:58:23.381Z,87.15
2017-09-10T01:59:35.052Z,87.15
2017-09-10T02:00:46.975Z,87.25
2017-09-10T02:01:59.205Z,87.15
2017-09-10T02:03:11.130Z,86.96
2017-09-10T02:04:23.680Z,87.35
2017-09-10T02:05:36.262Z,86.77
2017-09-10T02:06:48.484Z,87.25
2017-09-10T02:08:00.788Z,86.77
2017-09-10T02:09:13.385Z,86.58
2017-09-10T02:10:25.644Z,86.77
2017-09-10T02:11:37.936Z,86.68
2017-09-10T02:12:50.519Z,86.96
2017-09-10T02:14:02.805Z,86.39
2017-09-10T02:15:15.094Z,86.68
2017-09-10T02:16:27.672Z,86.68
2017-09-10T02:17:39.979Z,86.49
2017-09-10T02:18:52.271Z,86.39
2017-09-10T02:20:04.517Z,86.49
2017-09-10T02:21:16.789Z,86.68
2017-09-10T02:22:28.709Z,86.58
2017-09-10T02:23:40.989Z,86.77
2017-09-10T02:24:53.611Z,86.2
2017-09-10T02:26:05.546Z,86.39
2017-09-10T02:27:17.851Z,86.39
2017-09-10T02:28:30.098Z,86.39
2017-09-10T02:29:42.681Z,85.91
2017-09-10T02:30:54.920Z,85.82
2017-09-10T02:32:07.185Z,86.58
2017-09-10T02:33:19.159Z,86.39
2017-09-10T02:34:31.450Z,86.01
2017-09-10T02:35:44.016Z,86.2
2017-09-10T02:36:56.243Z,86.2
2017-09-10T02:38:08.783Z,86.1
2017-09-10T02:39:21.090Z,85.63
2017-09-10T02:40:33.644Z,85.63
2017-09-10T02:41:46.181Z,85.91
2017-09-10T02:42:58.476Z,85.63
2017-09-10T02:44:10.765Z,85.44
2017-09-10T02:45:23.342Z,85.34
2017-09-10T02:46:35.930Z,85.63
2017-09-10T02:47:48.220Z,85.82
2017-09-10T02:49:00.496Z,85.82
2017-09-10T02:50:13.119Z,86.1
2017-09-10T02:51:25.382Z,85.44
2017-09-10T02:52:38.022Z,85.05
2017-09-10T02:53:50.352Z,85.05
2017-09-10T02:55:02.307Z,85.25
2017-09-10T02:56:14.943Z,85.15
2017-09-10T02:57:27.511Z,84.86
2017-09-10T02:58:40.134Z,84.96
2017-09-10T02:59:52.423Z,84.77
2017-09-10T03:01:04.972Z,84.77
2017-09-10T03:02:17.275Z,84.67
2017-09-10T03:03:29.885Z,84.58
2017-09-10T03:04:42.480Z,84.67
2017-09-10T03:05:55.312Z,84.58
2017-09-10T03:07:07.957Z,84.77
2017-09-10T03:08:20.535Z,84.77
2017-09-10T03:09:33.142Z,84.77
2017-09-10T03:10:45.434Z,84.58
2017-09-10T03:11:58.038Z,84.67
2017-09-10T03:13:10.360Z,84.39
2017-09-10T03:14:22.632Z,84.96
2017-09-10T03:15:35.259Z,84.58
2017-09-10T03:16:47.848Z,84.58
2017-09-10T03:17:59.850Z,84.86
2017-09-10T03:19:11.811Z,84.58
2017-09-10T03:20:24.150Z,84.63
2017-09-10T03:21:36.393Z,84.96
2017-09-10T03:22:49.033Z,84.48
2017-09-10T03:24:01.362Z,84.53
2017-09-10T03:25:13.008Z,83.91
2017-09-10T03:26:24.990Z,84.58
2017-09-10T03:27:37.496Z,84.2
2017-09-10T03:28:49.546Z,84.16
2017-09-10T03:30:01.550Z,84.25
2017-09-10T03:31:13.228Z,83.77
2017-09-10T03:32:25.506Z,83.87
2017-09-10T03:33:37.426Z,83.77
2017-09-10T03:34:50.049Z,83.96
2017-09-10T03:36:02.620Z,84.06
2017-09-10T03:37:14.974Z,84.06
2017-09-10T03:38:27.584Z,83.96
2017-09-10T03:39:39.835Z,84.16
2017-09-10T03:40:52.373Z,84.06
2017-09-10T03:42:05.005Z,84.06
2017-09-10T03:43:17.283Z,83.96
2017-09-10T03:44:29.864Z,84.06
2017-09-10T03:45:41.762Z,83.77
2017-09-10T03:46:54.089Z,83.67
2017-09-10T03:48:06.080Z,83.67
2017-09-10T03:49:18.412Z,83.87
2017-09-10T03:50:30.991Z,83.67
2017-09-10T03:51:43.541Z,83.67
2017-09-10T03:52:56.172Z,83.58
2017-09-10T03:54:08.419Z,83.67
2017-09-10T03:55:20.699Z,83.58
2017-09-10T03:56:32.936Z,83.39
2017-09-10T03:57:44.890Z,83.39
2017-09-10T03:58:56.514Z,83.01
2017-09-10T04:00:09.072Z,83.39
2017-09-10T04:01:21.662Z,83.11
2017-09-10T04:02:33.895Z,82.91
2017-09-10T04:03:46.160Z,83.01
2017-09-10T04:04:58.405Z,83.01
2017-09-10T04:06:10.698Z,82.91
2017-09-10T04:07:23.263Z,83.01
2017-09-10T04:08:35.610Z,83.11
2017-09-10T04:09:48.198Z,83.01
2017-09-10T04:11:00.427Z,83.01
2017-09-10T04:12:12.660Z,82.82
2017-09-10T04:13:25.275Z,82.53
2017-09-10T04:14:37.802Z,82.72
2017-09-10T04:15:50.392Z,82.72
2017-09-10T04:17:02.375Z,82.82
2017-09-10T04:18:14.996Z,82.72
2017-09-10T04:19:27.536Z,82.63
2017-09-10T04:20:40.163Z,82.72
2017-09-10T04:21:52.812Z,82.63
2017-09-10T04:23:04.791Z,82.63
2017-09-10T04:24:17.345Z,82.43
2017-09-10T04:25:29.944Z,82.43
2017-09-10T04:26:42.201Z,82.15
2017-09-10T04:27:54.747Z,82.15
2017-09-10T04:29:07.061Z,82.24
2017-09-10T04:30:19.348Z,82.34
2017-09-10T04:31:31.941Z,82.15
2017-09-10T04:32:44.506Z,82.43
2017-09-10T04:33:57.056Z,81.96
2017-09-10T04:35:09.710Z,81.77
2017-09-10T04:36:21.999Z,81.86
2017-09-10T04:37:34.606Z,82.24
2017-09-10T04:38:47.255Z,81.86
2017-09-10T04:39:59.889Z,81.86
2017-09-10T04:41:11.862Z,81.58
2017-09-10T04:42:24.146Z,81.29
2017-09-10T04:43:36.625Z,81.38
2017-09-10T04:44:49.255Z,81.58
2017-09-10T04:46:01.265Z,81.67
2017-09-10T04:47:12.942Z,81.58
2017-09-10T04:48:25.510Z,81.29
2017-09-10T04:49:37.750Z,81.67
2017-09-10T04:50:50.050Z,81.58
2017-09-10T04:52:01.949Z,81.48
2017-09-10T04:53:14.140Z,81.48
2017-09-10T04:54:26.420Z,81.1
2017-09-10T04:55:38.384Z,81.2
2017-09-10T04:56:50.351Z,81.01
2017-09-10T04:58:02.975Z,80.81
2017-09-10T04:59:15.267Z,81.01
2017-09-10T05:00:27.835Z,80.91
2017-09-10T05:01:40.107Z,80.81
2017-09-10T05:02:52.740Z,80.33
2017-09-10T05:04:05.292Z,80.43
2017-09-10T05:05:17.531Z,80.72
2017-09-10T05:06:30.166Z,80.33
2017-09-10T05:07:42.772Z,80.05
2017-09-10T05:08:55.393Z,80.24
2017-09-10T05:10:07.983Z,80.24
2017-09-10T05:11:19.898Z,80.05
2017-09-10T05:12:32.219Z,79.57
2017-09-10T05:13:44.831Z,79.77
2017-09-10T05:14:57.089Z,79.57
2017-09-10T05:16:09.088Z,79.1
2017-09-10T05:17:21.662Z,79.43
2017-09-10T05:18:33.970Z,79.43
2017-09-10T05:19:46.579Z,79.43
2017-09-10T05:20:58.887Z,79.14
2017-09-10T05:22:10.484Z,79.23
2017-09-10T05:23:22.708Z,79.33
2017-09-10T05:24:34.311Z,78.94
2017-09-10T05:25:46.933Z,78.94
2017-09-10T05:26:59.542Z,79.14
2017-09-10T05:28:12.161Z,78.94
2017-09-10T05:29:24.719Z,79.33
2017-09-10T05:30:36.728Z,79.23
2017-09-10T05:31:49.291Z,78.94
2017-09-10T05:33:01.254Z,79.14
2017-09-10T05:34:13.524Z,78.94
2017-09-10T05:35:25.839Z,78.66
2017-09-10T05:36:38.507Z,78.75
2017-09-10T05:37:50.453Z,79.04
2017-09-10T05:39:02.707Z,78.75
2017-09-10T05:40:14.973Z,78.85
2017-09-10T05:41:27.204Z,78.94
2017-09-10T05:42:39.733Z,78.94
2017-09-10T05:43:51.974Z,78.94
2017-09-10T05:45:04.269Z,78.66
2017-09-10T05:46:16.858Z,78.99
2017-09-10T05:47:29.467Z,79.27
2017-09-10T05:48:41.694Z,78.7
2017-09-10T05:49:54.284Z,79.36
2017-09-10T05:51:06.604Z,79.17
2017-09-10T05:52:19.193Z,79.08
2017-09-10T05:53:31.447Z,78.51
2017-09-10T05:54:43.416Z,78.6
2017-09-10T05:55:55.998Z,78.22
2017-09-10T05:57:08.260Z,78.22
2017-09-10T05:58:20.228Z,78.7
2017-09-10T05:59:32.525Z,79.5
2017-09-10T06:00:45.145Z,79.75
2017-09-10T06:01:57.394Z,79.5
2017-09-10T06:03:09.654Z,79.31
2017-09-10T06:04:21.912Z,79.79
2017-09-10T06:05:33.828Z,80.17
2017-09-10T06:06:46.123Z,80.17
2017-09-10T06:07:58.689Z,81.13
2017-09-10T06:09:11.291Z,80.65
2017-09-10T06:10:23.913Z,83.08
2017-09-10T06:11:36.156Z,82.79
2017-09-10T06:12:48.137Z,82.03
2017-09-10T06:14:00.449Z,82.98
2017-09-10T06:15:13.046Z,82.31
2017-09-10T06:16:25.666Z,82.89
2017-09-10T06:17:37.984Z,83.65
2017-09-10T06:18:50.578Z,83.56
2017-09-10T06:20:02.925Z,84.61
2017-09-10T06:21:14.848Z,83.65
2017-09-10T06:22:27.102Z,83.75
2017-09-10T06:23:39.112Z,84.32
2017-09-10T06:24:51.736Z,84.89
2017-09-10T06:26:03.681Z,84.8
2017-09-10T06:27:16.291Z,84.61
2017-09-10T06:28:28.562Z,84.89
2017-09-10T06:29:40.802Z,84.7
2017-09-10T06:30:53.374Z,84.7
2017-09-10T06:32:05.688Z,84.61
2017-09-10T06:33:17.345Z,85.66
2017-09-10T06:34:29.907Z,84.89
2017-09-10T06:35:42.492Z,84.94
2017-09-10T06:36:55.125Z,85.03
2017-09-10T06:38:07.710Z,85.61
2017-09-10T06:39:20.309Z,85.51
2017-09-10T06:40:32.606Z,86.47
2017-09-10T06:41:45.198Z,85.8
2017-09-10T06:42:57.771Z,85.8
2017-09-10T06:44:10.089Z,89.05
2017-09-10T06:45:22.690Z,87.62
2017-09-10T06:46:34.644Z,87.23
2017-09-10T06:47:46.959Z,87.23
2017-09-10T06:48:59.250Z,87.76
2017-09-10T06:50:11.572Z,88.23
2017-09-10T06:51:23.854Z,87.66
2017-09-10T06:52:35.561Z,87.95
2017-09-10T06:53:48.096Z,88.71
2017-09-10T06:55:00.360Z,88.52
2017-09-10T06:56:12.643Z,89.86
2017-09-10T06:57:25.290Z,89.04
2017-09-10T06:58:37.860Z,88.56
2017-09-10T06:59:50.742Z,89.23
2017-09-10T07:01:02.145Z,88.47
2017-09-10T07:02:14.442Z,89.43
2017-09-10T07:03:27.021Z,90.19
2017-09-10T07:04:39.631Z,92.97
2017-09-10T07:05:51.659Z,93.07
2017-09-10T07:07:03.906Z,92.63
2017-09-10T07:08:16.454Z,95.75
2017-09-10T07:09:28.797Z,94.07
2017-09-10T07:10:41.418Z,95.12
2017-09-10T07:11:54.012Z,93.69
2017-09-10T07:13:06.311Z,94.55
2017-09-10T07:14:18.884Z,94.45
2017-09-10T07:15:31.461Z,97.04
2017-09-10T07:16:44.054Z,95.41
2017-09-10T07:17:56.627Z,97.14
2017-09-10T07:19:09.219Z,97.04
2017-09-10T07:20:21.559Z,98.91
2017-09-10T07:21:34.107Z,99.01
2017-09-10T07:22:46.425Z,98.62
2017-09-10T07:23:58.023Z,98.43
2017-09-10T07:25:10.017Z,97.95
2017-09-10T07:26:22.637Z,99.87
2017-09-10T07:27:35.209Z,99.99
2017-09-10T07:28:47.776Z,99.87
2017-09-10T07:30:00.409Z,99.39
2017-09-10T07:31:12.667Z,99.44
2017-09-10T07:32:24.648Z,99.44
2017-09-10T07:33:37.188Z,98.86
2017-09-10T07:34:49.736Z,99.05
2017-09-10T07:36:02.044Z,99.05
2017-09-10T07:37:13.660Z,99.24
2017-09-10T07:38:26.269Z,99.49
2017-09-10T07:39:37.906Z,99.01
2017-09-10T07:40:50.137Z,99.49
2017-09-10T07:42:02.780Z,99.99
2017-09-10T07:43:14.785Z,99.99
2017-09-10T07:44:27.127Z,99.96
2017-09-10T07:45:39.683Z,99.1
2017-09-10T07:46:51.972Z,99.99
2017-09-10T07:48:04.272Z,99.58
2017-09-10T07:49:16.215Z,99.99
2017-09-10T07:50:28.800Z,99.77
2017-09-10T07:51:41.375Z,99.99
2017-09-10T07:52:53.370Z,99.99
2017-09-10T07:54:05.627Z,99.44
2017-09-10T07:55:17.911Z,99.99
2017-09-10T07:56:30.506Z,99.73
2017-09-10T07:57:42.422Z,99.82
2017-09-10T07:58:54.936Z,99.99
2017-09-10T08:00:07.504Z,99.99
2017-09-10T08:01:19.511Z,99.82
2017-09-10T08:02:31.828Z,99.99
2017-09-10T08:03:44.368Z,99.99
2017-09-10T08:04:56.669Z,99.99
2017-09-10T08:06:08.648Z,99.99
2017-09-10T08:07:21.206Z,99.99
2017-09-10T08:08:33.212Z,99.92
2017-09-10T08:09:45.496Z,99.99
2017-09-10T08:10:58.102Z,99.99
2017-09-10T08:12:10.095Z,99.99
2017-09-10T08:13:22.325Z,99.99
2017-09-10T08:14:33.979Z,99.99
2017-09-10T08:15:46.205Z,99.99
2017-09-10T08:16:58.502Z,99.99
2017-09-10T08:18:11.072Z,99.99
2017-09-10T08:19:23.587Z,99.99
2017-09-10T08:20:35.515Z,99.99
2017-09-10T08:21:47.829Z,99.99
2017-09-10T08:23:00.117Z,99.99
2017-09-10T08:24:12.478Z,99.99
2017-09-10T08:25:24.686Z,99.99
2017-09-10T08:26:36.931Z,99.99
2017-09-10T08:27:48.562Z,99.99
2017-09-10T08:29:00.583Z,99.49
2017-09-10T08:30:13.165Z,99.97
2017-09-10T08:31:25.402Z,99.99
2017-09-10T08:32:37.665Z,99.58
2017-09-10T08:33:49.909Z,99.99
2017-09-10T08:35:02.143Z,99.99
2017-09-10T08:36:14.113Z,99.99
2017-09-10T08:37:26.347Z,99.99
2017-09-10T08:38:38.628Z,99.99
2017-09-10T08:39:50.948Z,99.68
2017-09-10T08:41:02.619Z,99.99
2017-09-10T08:42:14.585Z,99.4
2017-09-10T08:43:26.837Z,99.99
2017-09-10T08:44:39.461Z,99.99
2017-09-10T08:45:51.741Z,99.99
2017-09-10T08:47:03.670Z,99.99
2017-09-10T08:48:16.022Z,99.99
2017-09-10T08:49:28.288Z,99.78
2017-09-10T08:50:40.548Z,99.99
2017-09-10T08:51:52.840Z,99.99
2017-09-10T08:53:04.808Z,99.99
2017-09-10T08:54:17.334Z,99.99
2017-09-10T08:55:29.324Z,99.99
2017-09-10T08:56:41.876Z,99.99
2017-09-10T08:57:53.856Z,99.99
2017-09-10T08:59:06.483Z,99.99
2017-09-10T09:00:19.003Z,99.99
2017-09-10T09:01:31.345Z,99.99
2017-09-10T09:02:43.362Z,99.99
2017-09-10T09:03:55.644Z,99.99
2017-09-10T09:05:07.940Z,99.99
2017-09-10T09:06:20.525Z,99.99
2017-09-10T09:07:32.853Z,99.99
2017-09-10T09:08:44.841Z,99.99
2017-09-10T09:09:57.143Z,99.99
2017-09-10T09:11:09.693Z,99.99
2017-09-10T09:12:21.971Z,99.99
2017-09-10T09:13:34.559Z,99.99
2017-09-10T09:14:46.503Z,99.99
2017-09-10T09:15:59.121Z,99.99
2017-09-10T09:17:11.111Z,99.99
2017-09-10T09:18:23.398Z,99.99
2017-09-10T09:19:35.644Z,99.99
2017-09-10T09:20:47.908Z,99.92
2017-09-10T09:21:59.947Z,99.99
2017-09-10T09:23:11.917Z,99.99
2017-09-10T09:24:24.151Z,99.99
2017-09-10T09:25:36.684Z,99.99
2017-09-10T09:26:49.278Z,99.99
2017-09-10T09:28:01.208Z,99.99
2017-09-10T09:29:13.234Z,99.99
2017-09-10T09:30:25.193Z,99.99
2017-09-10T09:31:37.163Z,99.99
2017-09-10T09:32:49.403Z,99.99
2017-09-10T09:34:01.627Z,99.99
2017-09-10T09:35:13.619Z,99.99
2017-09-10T09:36:26.189Z,99.99
2017-09-10T09:37:38.704Z,99.99
2017-09-10T09:38:51.010Z,99.82
2017-09-10T09:40:03.588Z,99.82
2017-09-10T09:41:15.515Z,99.99
2017-09-10T09:42:27.772Z,99.99
2017-09-10T09:43:40.407Z,99.99
2017-09-10T09:44:52.365Z,99.99
2017-09-10T09:46:04.631Z,99.99
2017-09-10T09:47:17.175Z,99.99
2017-09-10T09:48:29.090Z,99.99
2017-09-10T09:49:40.709Z,99.99
2017-09-10T09:50:53.008Z,99.15
2017-09-10T09:52:05.562Z,99.82
2017-09-10T09:53:18.153Z,99.63
2017-09-10T09:54:29.836Z,99.99
2017-09-10T09:55:42.470Z,99.99
2017-09-10T09:56:55.160Z,98.05
2017-09-10T09:58:07.765Z,98.72
2017-09-10T09:59:20.415Z,98.91
2017-09-10T10:00:32.989Z,97.57
2017-09-10T10:01:45.603Z,98.24
2017-09-10T10:02:58.138Z,99.2
2017-09-10T10:04:10.641Z,99.3
2017-09-10T10:05:22.884Z,98.24
2017-09-10T10:06:35.399Z,98.34
2017-09-10T10:07:47.351Z,99.2
2017-09-10T10:08:58.998Z,98.24
2017-09-10T10:10:11.254Z,98.82
2017-09-10T10:11:22.850Z,99.49
2017-09-10T10:12:35.403Z,98.91
2017-09-10T10:13:47.662Z,99.01
2017-09-10T10:14:59.644Z,99.68
2017-09-10T10:16:10.965Z,99.3
2017-09-10T10:17:23.594Z,99.99
2017-09-10T10:18:35.913Z,99.99
2017-09-10T10:19:48.184Z,99.3
2017-09-10T10:21:00.097Z,99.73
2017-09-10T10:22:11.763Z,98.05
2017-09-10T10:23:23.384Z,98.14
2017-09-10T10:24:35.028Z,98
2017-09-10T10:25:47.029Z,98.96
2017-09-10T10:26:59.558Z,98.19
2017-09-10T10:28:11.855Z,98.53
2017-09-10T10:29:23.818Z,98.34
2017-09-10T10:30:36.713Z,98.14
2017-09-10T10:31:48.958Z,98.82
2017-09-10T10:33:00.953Z,99.1
2017-09-10T10:34:13.264Z,99.58
2017-09-10T10:35:25.828Z,99.4
2017-09-10T10:36:37.774Z,99.1
2017-09-10T10:37:50.021Z,99.78
2017-09-10T10:39:01.677Z,99.4
2017-09-10T10:40:14.349Z,99.4
2017-09-10T10:41:26.959Z,98.72
2017-09-10T10:42:39.301Z,98.63
2017-09-10T10:43:51.877Z,98.91
2017-09-10T10:45:03.826Z,98.34
2017-09-10T10:46:15.737Z,97.96
2017-09-10T10:47:28.095Z,98.29
2017-09-10T10:48:40.422Z,98.1
2017-09-10T10:49:53.064Z,97.14
2017-09-10T10:51:05.044Z,96.27
2017-09-10T10:52:17.615Z,95.79
2017-09-10T10:53:30.224Z,95.75
2017-09-10T10:54:42.226Z,96.22
2017-09-10T10:55:54.808Z,94.59
2017-09-10T10:57:06.481Z,94.3
2017-09-10T10:58:19.037Z,93.91
2017-09-10T10:59:30.966Z,95.26
2017-09-10T11:00:43.243Z,95.98
2017-09-10T11:01:55.245Z,96.17
2017-09-10T11:03:07.596Z,96.17
2017-09-10T11:04:20.211Z,96.47
2017-09-10T11:05:32.461Z,95.89
2017-09-10T11:06:44.732Z,95.79
2017-09-10T11:07:57.349Z,96.37
2017-09-10T11:09:09.963Z,93.19
2017-09-10T11:10:22.203Z,94.59
2017-09-10T11:11:34.849Z,94.59
2017-09-10T11:12:47.068Z,94.3
2017-09-10T11:13:59.569Z,95.26
2017-09-10T11:15:12.185Z,96.22
2017-09-10T11:16:24.421Z,93.91
2017-09-10T11:17:36.356Z,94.2
2017-09-10T11:18:47.995Z,93.82
2017-09-10T11:20:00.618Z,93.96
2017-09-10T11:21:12.617Z,93.48
2017-09-10T11:22:25.269Z,91.94
2017-09-10T11:23:37.956Z,92.13
2017-09-10T11:24:50.535Z,93
2017-09-10T11:26:03.156Z,93
2017-09-10T11:27:15.839Z,93.29
2017-09-10T11:28:28.078Z,92.22
2017-09-10T11:29:39.975Z,91.94
2017-09-10T11:30:52.263Z,93.09
2017-09-10T11:32:03.909Z,91.5
2017-09-10T11:33:16.286Z,90.16
2017-09-10T11:34:28.850Z,90.44
2017-09-10T11:35:41.402Z,91.69
2017-09-10T11:36:53.967Z,92.18
2017-09-10T11:38:06.275Z,92.56
2017-09-10T11:39:18.284Z,92.51
2017-09-10T11:40:30.535Z,92.37
2017-09-10T11:41:42.580Z,91.06
2017-09-10T11:42:54.544Z,90.3
2017-09-10T11:44:07.153Z,91.16
2017-09-10T11:45:19.429Z,89.53
2017-09-10T11:46:32.013Z,89.72
2017-09-10T11:47:44.609Z,90.48
2017-09-10T11:48:56.864Z,90.39
2017-09-10T11:50:09.144Z,89.43
2017-09-10T11:51:21.789Z,90
2017-09-10T11:52:33.773Z,89.62
2017-09-10T11:53:45.795Z,89.62
2017-09-10T11:54:58.116Z,90.2
2017-09-10T11:56:10.094Z,91.6
2017-09-10T11:57:22.081Z,92.22
2017-09-10T11:58:34.663Z,92.56
2017-09-10T11:59:46.916Z,92.66
2017-09-10T12:00:59.461Z,91.93
2017-09-10T12:02:11.776Z,92.27
2017-09-10T12:03:24.071Z,91.79
2017-09-10T12:04:36.038Z,91.41
2017-09-10T12:05:48.037Z,92.18
2017-09-10T12:07:00.604Z,90.92
2017-09-10T12:08:13.283Z,91.12
2017-09-10T12:09:25.946Z,90.73
2017-09-10T12:10:38.501Z,91.69
2017-09-10T12:11:50.746Z,91.41
2017-09-10T12:13:02.748Z,91.5
2017-09-10T12:14:15.403Z,91.31
2017-09-10T12:15:28.085Z,91.5
2017-09-10T12:16:40.354Z,91.45
2017-09-10T12:17:52.308Z,90.73
2017-09-10T12:19:04.565Z,89.91
2017-09-10T12:20:16.555Z,90.3
2017-09-10T12:21:28.870Z,90.2
2017-09-10T12:22:40.546Z,90.2
2017-09-10T12:23:52.839Z,90.68
2017-09-10T12:25:04.849Z,90.58
2017-09-10T12:26:17.144Z,88.99
2017-09-10T12:27:29.723Z,89.76
2017-09-10T12:28:41.697Z,89.57
2017-09-10T12:29:53.982Z,89.86
2017-09-10T12:31:06.527Z,90.34
2017-09-10T12:32:19.131Z,89.57
2017-09-10T12:33:31.419Z,88.99
2017-09-10T12:34:44.015Z,88.51
2017-09-10T12:35:56.594Z,89.18
2017-09-10T12:37:08.561Z,89.28
2017-09-10T12:38:20.187Z,88.89
2017-09-10T12:39:32.797Z,88.99
2017-09-10T12:40:44.768Z,87.93
2017-09-10T12:41:56.976Z,87.26
2017-09-10T12:43:09.599Z,86.82
2017-09-10T12:44:22.212Z,88.36
2017-09-10T12:45:34.461Z,87.68
2017-09-10T12:46:46.726Z,88.75
2017-09-10T12:47:59.285Z,88.93
2017-09-10T12:49:11.284Z,88.93
2017-09-10T12:50:23.583Z,88.93
2017-09-10T12:51:36.140Z,87.49
2017-09-10T12:52:48.465Z,87.4
2017-09-10T12:54:00.729Z,86.24
2017-09-10T12:55:13.027Z,87.01
2017-09-10T12:56:25.672Z,87.59
2017-09-10T12:57:37.689Z,89.03
2017-09-10T12:58:50.289Z,88.31
2017-09-10T13:00:02.234Z,87.82
2017-09-10T13:01:14.203Z,86.86
2017-09-10T13:02:26.815Z,86.47
2017-09-10T13:03:39.444Z,86.86
2017-09-10T13:04:52.064Z,85.89
2017-09-10T13:06:04.661Z,87.63
2017-09-10T13:07:17.266Z,88.21
2017-09-10T13:08:29.876Z,89.07
2017-09-10T13:09:41.870Z,87.15
2017-09-10T13:10:54.523Z,87.34
2017-09-10T13:12:06.849Z,87.24
2017-09-10T13:13:19.142Z,86.52
2017-09-10T13:14:31.405Z,86.82
2017-09-10T13:15:43.648Z,86.72
2017-09-10T13:16:55.674Z,87.4
2017-09-10T13:18:07.966Z,87.4
2017-09-10T13:19:20.562Z,86.72
2017-09-10T13:20:32.556Z,87.88
2017-09-10T13:21:45.155Z,88.51
2017-09-10T13:22:57.426Z,88.12
2017-09-10T13:24:09.685Z,88.51
2017-09-10T13:25:22.268Z,88.89
2017-09-10T13:26:34.293Z,88.89
2017-09-10T13:27:46.331Z,89.43
2017-09-10T13:28:58.870Z,89.91
2017-09-10T13:30:11.495Z,89.53
2017-09-10T13:31:23.146Z,90
2017-09-10T13:32:35.439Z,90.3
2017-09-10T13:33:47.720Z,91.16
2017-09-10T13:35:00.341Z,91.16
2017-09-10T13:36:12.624Z,89.81
2017-09-10T13:37:25.179Z,88.65
2017-09-10T13:38:37.709Z,89.23
2017-09-10T13:39:50.293Z,90
2017-09-10T13:41:02.332Z,90.34
2017-09-10T13:42:14.960Z,90.2
2017-09-10T13:43:27.267Z,90.2
2017-09-10T13:44:39.219Z,88.75
2017-09-10T13:45:51.195Z,89.29
2017-09-10T13:47:03.100Z,89.58
2017-09-10T13:48:15.395Z,89.96
2017-09-10T13:49:27.682Z,90.25
2017-09-10T13:50:40.290Z,89.96
2017-09-10T13:51:52.532Z,88.71
2017-09-10T13:53:04.495Z,89.58
2017-09-10T13:54:16.760Z,89.29
2017-09-10T13:55:29.381Z,89.96
2017-09-10T13:56:41.675Z,90.25
2017-09-10T13:57:54.270Z,90.25
2017-09-10T13:59:06.235Z,90.25
2017-09-10T14:00:18.213Z,90.59
2017-09-10T14:01:30.486Z,90.97
2017-09-10T14:02:42.503Z,90.4
2017-09-10T14:03:55.103Z,91.27
2017-09-10T14:05:07.392Z,91.17
2017-09-10T14:06:19.659Z,91.55
2017-09-10T14:07:32.238Z,91.17
2017-09-10T14:08:44.591Z,90.88
2017-09-10T14:09:57.154Z,91.07
2017-09-10T14:11:09.476Z,92.28
2017-09-10T14:12:22.081Z,91.75
2017-09-10T14:13:34.426Z,91.07
2017-09-10T14:14:46.743Z,92.03
2017-09-10T14:15:59.349Z,91.36
2017-09-10T14:17:11.926Z,91.55
2017-09-10T14:18:24.752Z,91.36
2017-09-10T14:19:37.030Z,91.36
2017-09-10T14:20:49.606Z,91.84
2017-09-10T14:22:01.596Z,92.42
2017-09-10T14:23:14.191Z,90.4
2017-09-10T14:24:26.512Z,91.27
2017-09-10T14:25:38.147Z,91.36
2017-09-10T14:26:50.693Z,91.84
2017-09-10T14:28:02.726Z,91.75
2017-09-10T14:29:14.095Z,92.8
2017-09-10T14:30:26.761Z,92.13
2017-09-10T14:31:38.702Z,92.03
2017-09-10T14:32:51.281Z,92.22
2017-09-10T14:34:03.229Z,91.94
2017-09-10T14:35:15.538Z,92.32
2017-09-10T14:36:28.100Z,92.42
2017-09-10T14:37:40.664Z,92.22
2017-09-10T14:38:53.324Z,92.13
2017-09-10T14:40:05.885Z,92.8
2017-09-10T14:41:18.464Z,93.24
2017-09-10T14:42:31.121Z,92.9
2017-09-10T14:43:43.399Z,92.42
2017-09-10T14:44:55.626Z,90.88
2017-09-10T14:46:07.571Z,91.46
2017-09-10T14:47:19.830Z,91.17
2017-09-10T14:48:32.444Z,91.17
2017-09-10T14:49:44.718Z,91.17
2017-09-10T14:50:57.540Z,90.3
2017-09-10T14:52:09.837Z,90.3
2017-09-10T14:53:21.852Z,89.92
2017-09-10T14:54:34.493Z,89.43
2017-09-10T14:55:46.448Z,89.15
2017-09-10T14:56:58.465Z,89.92
2017-09-10T14:58:10.750Z,89.53
2017-09-10T14:59:23.002Z,90.25
2017-09-10T15:00:35.596Z,90.83
2017-09-10T15:01:47.866Z,90.25
2017-09-10T15:03:00.198Z,90.44
2017-09-10T15:04:12.810Z,89.86
2017-09-10T15:05:25.065Z,89.29
2017-09-10T15:06:37.624Z,89.48
2017-09-10T15:07:50.251Z,88.51
2017-09-10T15:09:02.467Z,88.51
2017-09-10T15:10:15.102Z,89.67
2017-09-10T15:11:27.385Z,89.67
2017-09-10T15:12:39.719Z,89.96
2017-09-10T15:13:52.310Z,91.02
2017-09-10T15:15:04.917Z,91.41
2017-09-10T15:16:17.206Z,91.6
2017-09-10T15:17:29.502Z,90.83
2017-09-10T15:18:42.048Z,90.25
2017-09-10T15:19:54.632Z,91.79
2017-09-10T15:21:06.897Z,92.08
2017-09-10T15:22:19.134Z,91.89
2017-09-10T15:23:31.664Z,91.89
2017-09-10T15:24:44.228Z,91.5
2017-09-10T15:25:56.531Z,91.84
2017-09-10T15:27:08.560Z,92.32
2017-09-10T15:28:20.876Z,92.42
2017-09-10T15:29:33.466Z,92.32
2017-09-10T15:30:46.071Z,92.03
2017-09-10T15:31:58.386Z,92.32
2017-09-10T15:33:10.945Z,91.75
2017-09-10T15:34:23.180Z,91.94